createdAt,value
2017-07-14T00:01:15.359Z,70.15
2017-07-14T00:03:43.722Z,69.89
2017-07-14T00:06:12.395Z,70.11
2017-07-14T00:08:40.725Z,70.65
2017-07-14T00:11:09.078Z,71.07
2017-07-14T00:13:38.209Z,71.06
2017-07-14T00:16:06.548Z,71.28
2017-07-14T00:18:34.900Z,71.34
2017-07-14T00:21:03.509Z,70.87
2017-07-14T00:23:31.869Z,71.25
2017-07-14T00:26:00.191Z,71.50
2017-07-14T00:28:28.885Z,71.36
2017-07-14T00:30:57.236Z,71.28
2017-07-14T00:33:25.611Z,72.02
2017-07-14T00:35:54.702Z,72.37
2017-07-14T00:38:23.063Z,72.35
2017-07-14T00:40:51.437Z,72.54
2017-07-14T00:43:20.172Z,73.26
2017-07-14T00:45:48.520Z,73.49
2017-07-14T00:48:16.897Z,73.29
2017-07-14T00:50:45.599Z,73.63
2017-07-14T00:53:13.956Z,73.98
2017-07-14T00:55:42.313Z,74.05
2017-07-14T00:58:11.266Z,73.52
2017-07-14T01:00:39.604Z,73.33
2017-07-14T01:03:07.959Z,73.64
2017-07-14T01:05:36.602Z,73.36
2017-07-14T01:08:05.708Z,72.89
2017-07-14T01:10:34.054Z,72.61
2017-07-14T01:13:02.719Z,72.85
2017-07-14T01:15:31.068Z,73.74
2017-07-14T01:17:59.412Z,73.56
2017-07-14T01:20:28.990Z,73.74
2017-07-14T01:22:57.361Z,73.44
2017-07-14T01:25:25.707Z,73.06
2017-07-14T01:27:54.371Z,73.20
2017-07-14T01:30:23.468Z,73.19
2017-07-14T01:32:52.571Z,73.33
2017-07-14T01:35:22.023Z,73.55
2017-07-14T01:37:50.355Z,73.92
2017-07-14T01:40:19.447Z,73.91
2017-07-14T01:42:49.075Z,73.50
2017-07-14T01:45:17.442Z,73.11
2017-07-14T01:47:45.786Z,72.89
2017-07-14T01:50:14.439Z,72.97
2017-07-14T01:52:42.765Z,72.39
2017-07-14T01:55:11.100Z,72.15
2017-07-14T01:57:39.748Z,72.29
2017-07-14T02:00:08.089Z,72.42
2017-07-14T02:02:36.420Z,72.28
2017-07-14T02:05:05.417Z,72.32
2017-07-14T02:07:33.766Z,72.13
2017-07-14T02:10:02.904Z,72.09
2017-07-14T02:12:31.599Z,72.24
2017-07-14T02:14:59.934Z,72.26
2017-07-14T02:17:28.278Z,71.60
2017-07-14T02:19:57.096Z,71.52
2017-07-14T02:22:25.417Z,71.98
2017-07-14T02:24:53.759Z,73.06
2017-07-14T02:27:22.758Z,73.03
2017-07-14T02:29:51.116Z,73.80
2017-07-14T02:32:19.471Z,74.10
2017-07-14T02:34:48.389Z,73.81
2017-07-14T02:37:16.765Z,73.38
2017-07-14T02:39:45.098Z,72.99
2017-07-14T02:42:13.725Z,73.36
2017-07-14T02:44:42.076Z,73.06
2017-07-14T02:47:11.261Z,72.78
2017-07-14T02:49:40.118Z,72.51
2017-07-14T02:52:08.489Z,72.62
2017-07-14T02:54:36.846Z,72.12
2017-07-14T02:57:05.573Z,71.54
2017-07-14T02:59:33.964Z,71.50
2017-07-14T03:02:02.288Z,72.06
2017-07-14T03:04:30.935Z,72.57
2017-07-14T03:06:59.291Z,72.63
2017-07-14T03:09:27.635Z,72.40
2017-07-14T03:11:56.700Z,72.04
2017-07-14T03:14:25.058Z,71.96
2017-07-14T03:16:53.412Z,72.23
2017-07-14T03:19:22.313Z,72.46
2017-07-14T03:21:50.645Z,73.58
2017-07-14T03:24:19.798Z,74.12
2017-07-14T03:26:48.581Z,75.15
2017-07-14T03:29:16.917Z,75.09
2017-07-14T03:31:45.252Z,74.56
2017-07-14T03:34:14.265Z,74.15
2017-07-14T03:36:42.623Z,73.70
2017-07-14T03:39:10.972Z,73.36
2017-07-14T03:41:39.867Z,72.83
2017-07-14T03:44:08.203Z,73.39
2017-07-14T03:46:36.528Z,73.79
2017-07-14T03:49:05.923Z,72.86
2017-07-14T03:51:34.293Z,72.44
2017-07-14T03:54:03.391Z,72.95
2017-07-14T03:56:33.224Z,73.30
2017-07-14T03:59:01.556Z,73.28
2017-07-14T04:01:29.904Z,73.59
2017-07-14T04:03:58.544Z,73.21
2017-07-14T04:06:27.671Z,73.30
2017-07-14T04:08:56.010Z,73.12
2017-07-14T04:11:24.943Z,72.83
2017-07-14T04:13:53.316Z,72.67
2017-07-14T04:16:21.653Z,72.52
2017-07-14T04:18:50.817Z,71.89
2017-07-14T04:21:19.147Z,71.92
2017-07-14T04:23:47.500Z,71.87
2017-07-14T04:26:16.233Z,71.67
2017-07-14T04:28:44.590Z,71.09
2017-07-14T04:31:13.705Z,71.54
2017-07-14T04:33:42.489Z,71.98
2017-07-14T04:36:10.835Z,73.42
2017-07-14T04:38:39.196Z,72.68
2017-07-14T04:41:08.136Z,72.72
2017-07-14T04:43:36.487Z,72.06
2017-07-14T04:46:04.824Z,70.92
2017-07-14T04:48:33.459Z,70.29
2017-07-14T04:51:01.804Z,69.53
2017-07-14T04:53:30.149Z,69.20
2017-07-14T04:55:58.805Z,68.96
2017-07-14T04:58:27.127Z,68.76
2017-07-14T05:00:55.453Z,68.63
2017-07-14T05:03:24.443Z,67.83
2017-07-14T05:05:52.779Z,67.11
2017-07-14T05:08:21.125Z,66.80
2017-07-14T05:10:50.520Z,67.45
2017-07-14T05:13:18.887Z,68.14
2017-07-14T05:15:47.257Z,68.51
2017-07-14T05:18:15.988Z,68.34
2017-07-14T05:20:44.358Z,67.41
2017-07-14T05:23:13.474Z,66.67
2017-07-14T05:25:42.444Z,66.89
2017-07-14T05:28:10.793Z,65.65
2017-07-14T05:30:39.131Z,64.94
2017-07-14T05:33:07.809Z,64.49
2017-07-14T05:35:36.162Z,63.47
2017-07-14T05:38:04.500Z,63.41
2017-07-14T05:40:33.328Z,62.19
2017-07-14T05:43:01.677Z,62.44
2017-07-14T05:45:30.021Z,61.75
2017-07-14T05:47:59.180Z,60.85
2017-07-14T05:50:27.527Z,60.15
2017-07-14T05:52:55.866Z,60.71
2017-07-14T05:55:24.465Z,60.65
2017-07-14T05:57:52.803Z,60.63
2017-07-14T06:00:21.162Z,60.26
2017-07-14T06:02:50.086Z,59.69
2017-07-14T06:05:18.409Z,59.04
2017-07-14T06:07:46.786Z,59.13
2017-07-14T06:10:15.684Z,58.68
2017-07-14T06:12:44.074Z,58.41
2017-07-14T06:15:12.417Z,57.08
2017-07-14T06:17:41.193Z,56.19
2017-07-14T06:20:09.555Z,55.37
2017-07-14T06:22:38.693Z,54.97
2017-07-14T06:25:07.496Z,53.58
2017-07-14T06:27:35.847Z,52.58
2017-07-14T06:30:04.186Z,51.54
2017-07-14T06:32:33.105Z,51.90
2017-07-14T06:35:01.455Z,51.76
2017-07-14T06:37:29.794Z,51.98
2017-07-14T06:39:58.452Z,52.46
2017-07-14T06:42:26.815Z,52.62
2017-07-14T06:44:55.176Z,50.95
2017-07-14T06:47:23.787Z,48.92
2017-07-14T06:49:52.117Z,49.44
2017-07-14T06:52:20.476Z,49.96
2017-07-14T06:54:49.667Z,49.59
2017-07-14T06:57:18.014Z,49.19
2017-07-14T06:59:47.122Z,48.60
2017-07-14T07:02:15.739Z,48.13
2017-07-14T07:04:44.061Z,47.55
2017-07-14T07:07:12.404Z,48.44
2017-07-14T07:09:41.024Z,48.42
2017-07-14T07:12:10.152Z,47.71
2017-07-14T07:14:38.516Z,46.85
2017-07-14T07:17:07.619Z,46.49
2017-07-14T07:19:35.960Z,46.78
2017-07-14T07:22:04.321Z,46.77
2017-07-14T07:24:33.002Z,47.02
2017-07-14T07:27:01.338Z,46.84
2017-07-14T07:29:29.665Z,46.63
2017-07-14T07:31:58.498Z,46.94
2017-07-14T07:34:26.843Z,46.50
2017-07-14T07:36:55.225Z,46.43
2017-07-14T07:39:24.485Z,47.16
2017-07-14T07:41:52.848Z,47.52
2017-07-14T07:44:21.204Z,47.12
2017-07-14T07:46:56.206Z,47.61
2017-07-14T07:49:25.486Z,48.62
2017-07-14T07:51:53.836Z,47.68
2017-07-14T07:54:22.509Z,46.89
2017-07-14T07:56:51.625Z,48.02
2017-07-14T07:59:19.955Z,46.33
2017-07-14T08:01:48.698Z,44.86
2017-07-14T08:04:17.017Z,44.45
2017-07-14T08:06:45.371Z,45.29
2017-07-14T08:09:14.002Z,45.70
2017-07-14T08:11:42.343Z,45.09
2017-07-14T08:14:10.687Z,44.99
2017-07-14T08:16:39.342Z,45.50
2017-07-14T08:19:07.715Z,46.02
2017-07-14T08:21:36.068Z,45.79
2017-07-14T08:24:05.425Z,45.96
2017-07-14T08:26:33.779Z,45.87
2017-07-14T08:29:02.135Z,44.87
2017-07-14T08:31:30.751Z,44.86
2017-07-14T08:33:59.116Z,44.68
2017-07-14T08:36:27.472Z,44.66
2017-07-14T08:38:56.306Z,45.19
2017-07-14T08:41:24.645Z,43.53
2017-07-14T08:43:54.005Z,44.38
2017-07-14T08:46:22.863Z,44.49
2017-07-14T08:48:51.211Z,44.01
2017-07-14T08:51:19.560Z,43.24
2017-07-14T08:53:48.211Z,42.25
2017-07-14T08:56:16.550Z,41.44
2017-07-14T08:58:44.889Z,41.37
2017-07-14T09:01:14.280Z,43.74
2017-07-14T09:03:42.613Z,44.30
2017-07-14T09:06:10.961Z,43.21
2017-07-14T09:08:39.947Z,42.98
2017-07-14T09:11:08.285Z,44.30
2017-07-14T09:13:36.640Z,43.77
2017-07-14T09:16:05.255Z,41.96
2017-07-14T09:18:33.603Z,41.20
2017-07-14T09:21:01.949Z,40.68
2017-07-14T09:23:30.834Z,39.86
2017-07-14T09:25:59.203Z,38.81
2017-07-14T09:28:27.564Z,38.29
2017-07-14T09:30:56.492Z,37.22
2017-07-14T09:33:24.840Z,37.55
2017-07-14T09:35:53.180Z,36.53
2017-07-14T09:38:22.127Z,36.52
2017-07-14T09:40:50.488Z,35.37
2017-07-14T09:43:18.829Z,35.30
2017-07-14T09:45:48.009Z,35.13
2017-07-14T09:48:16.352Z,35.78
2017-07-14T09:50:45.463Z,37.10
2017-07-14T09:53:14.451Z,37.42
2017-07-14T09:55:42.824Z,36.20
2017-07-14T09:58:11.959Z,35.54
2017-07-14T10:00:40.920Z,35.46
2017-07-14T10:03:09.254Z,35.55
2017-07-14T10:05:37.583Z,34.67
2017-07-14T10:08:06.221Z,35.03
2017-07-14T10:10:34.556Z,35.00
2017-07-14T10:13:02.906Z,35.26
2017-07-14T10:15:31.595Z,34.10
2017-07-14T10:17:59.929Z,33.63
2017-07-14T10:20:28.258Z,33.03
2017-07-14T10:23:09.963Z,31.48
2017-07-14T10:25:38.324Z,31.45
2017-07-14T10:28:07.451Z,30.64
2017-07-14T10:30:36.427Z,30.52
2017-07-14T10:33:04.757Z,29.68
2017-07-14T10:35:33.108Z,29.76
2017-07-14T10:38:01.871Z,29.72
2017-07-14T10:40:30.222Z,29.88
2017-07-14T10:42:58.561Z,30.38
2017-07-14T10:45:27.327Z,28.16
2017-07-14T10:47:55.659Z,28.36
2017-07-14T10:50:24.018Z,28.56
2017-07-14T10:52:52.865Z,27.72
2017-07-14T10:55:21.201Z,26.87
2017-07-14T10:57:49.535Z,26.24
2017-07-14T11:00:18.152Z,25.91
2017-07-14T11:02:46.723Z,27.04
2017-07-14T11:05:15.057Z,27.85
2017-07-14T11:07:43.870Z,27.85
2017-07-14T11:10:12.215Z,28.49
2017-07-14T11:12:40.554Z,28.67
2017-07-14T11:15:09.718Z,28.75
2017-07-14T11:17:38.087Z,30.12
2017-07-14T11:20:07.198Z,31.56
2017-07-14T11:22:35.911Z,32.67
2017-07-14T11:25:04.250Z,32.68
2017-07-14T11:27:32.610Z,33.22
2017-07-14T11:30:02.072Z,33.45
2017-07-14T11:32:30.420Z,33.78
2017-07-14T11:34:58.771Z,35.93
2017-07-14T11:37:27.701Z,36.11
2017-07-14T11:39:56.100Z,36.31
2017-07-14T11:42:24.508Z,36.40
2017-07-14T11:44:53.165Z,37.70
2017-07-14T11:47:21.537Z,37.99
2017-07-14T11:49:49.869Z,37.34
2017-07-14T11:52:18.785Z,38.72
2017-07-14T11:54:47.123Z,38.23
2017-07-14T11:57:15.452Z,37.93
2017-07-14T11:59:44.441Z,36.34
2017-07-14T12:02:12.817Z,35.65
2017-07-14T12:04:41.159Z,35.92
2017-07-14T12:07:10.014Z,35.93
2017-07-14T12:09:38.393Z,34.43
2017-07-14T12:12:06.738Z,33.54
2017-07-14T12:14:35.521Z,32.44
2017-07-14T12:17:03.870Z,32.81
2017-07-14T12:19:32.235Z,32.25
2017-07-14T12:22:01.312Z,31.32
2017-07-14T12:24:29.687Z,29.99
2017-07-14T12:26:58.019Z,29.77
2017-07-14T12:29:27.647Z,29.11
2017-07-14T12:31:55.991Z,28.33
2017-07-14T12:34:24.337Z,28.61
2017-07-14T12:36:52.991Z,31.00
2017-07-14T12:39:21.353Z,30.83
2017-07-14T12:41:49.710Z,32.33
2017-07-14T12:44:18.431Z,31.68
2017-07-14T12:46:47.526Z,32.81
2017-07-14T12:49:16.617Z,33.27
2017-07-14T12:51:45.289Z,34.19
2017-07-14T12:54:13.621Z,33.88
2017-07-14T12:56:41.962Z,33.49
2017-07-14T12:59:10.855Z,33.28
2017-07-14T13:01:39.181Z,32.17
2017-07-14T13:04:07.523Z,31.89
2017-07-14T13:06:36.508Z,32.71
2017-07-14T13:09:04.882Z,32.20
2017-07-14T13:11:33.997Z,31.95
2017-07-14T13:14:02.885Z,31.16
2017-07-14T13:16:31.234Z,31.10
2017-07-14T13:18:59.585Z,30.46
2017-07-14T13:21:28.235Z,30.60
2017-07-14T13:23:56.614Z,30.47
2017-07-14T13:26:24.990Z,30.49
2017-07-14T13:28:53.853Z,30.36
2017-07-14T13:31:22.206Z,30.08
2017-07-14T13:33:50.550Z,29.70
2017-07-14T13:36:19.532Z,29.99
2017-07-14T13:38:47.919Z,30.53
2017-07-14T13:41:16.258Z,29.97
2017-07-14T13:43:45.188Z,28.91
2017-07-14T13:46:13.554Z,29.27
2017-07-14T13:48:41.906Z,29.16
2017-07-14T13:51:10.573Z,29.84
2017-07-14T13:53:38.904Z,30.33
2017-07-14T13:56:07.258Z,30.13
2017-07-14T13:58:36.887Z,30.57
2017-07-14T14:01:05.222Z,30.35
2017-07-14T14:03:33.568Z,30.74
2017-07-14T14:06:02.212Z,30.60
2017-07-14T14:08:30.550Z,30.91
2017-07-14T14:10:58.907Z,31.02
2017-07-14T14:13:27.766Z,31.10
2017-07-14T14:15:56.140Z,30.86
2017-07-14T14:18:24.488Z,29.59
2017-07-14T14:20:53.342Z,29.50
2017-07-14T14:23:21.685Z,28.99
2017-07-14T14:25:50.006Z,29.49
2017-07-14T14:28:18.707Z,30.60
2017-07-14T14:30:47.050Z,32.03
2017-07-14T14:33:15.404Z,32.62
2017-07-14T14:35:44.291Z,33.77
2017-07-14T14:38:12.663Z,33.66
2017-07-14T14:40:41.814Z,34.41
2017-07-14T14:43:10.567Z,35.14
2017-07-14T14:45:38.910Z,34.54
2017-07-14T14:48:08.089Z,33.25
2017-07-14T14:50:36.688Z,33.00
2017-07-14T14:53:05.028Z,33.51
2017-07-14T14:55:33.373Z,32.70
2017-07-14T14:58:02.428Z,32.73
2017-07-14T15:00:30.767Z,33.14
2017-07-14T15:02:59.102Z,32.18
2017-07-14T15:05:27.822Z,32.54
2017-07-14T15:07:56.915Z,32.30
2017-07-14T15:10:26.014Z,32.10
2017-07-14T15:12:55.645Z,33.30
2017-07-14T15:15:23.971Z,33.89
2017-07-14T15:17:52.326Z,33.94
2017-07-14T15:20:21.177Z,33.36
2017-07-14T15:22:50.284Z,32.75
2017-07-14T15:25:18.613Z,32.56
2017-07-14T15:27:47.367Z,32.05
2017-07-14T15:30:15.685Z,32.76
2017-07-14T15:32:44.022Z,32.13
2017-07-14T15:35:12.634Z,32.49
2017-07-14T15:37:40.954Z,32.38
2017-07-14T15:40:09.330Z,31.63
2017-07-14T15:42:38.330Z,32.29
2017-07-14T15:45:07.437Z,32.51
2017-07-14T15:47:35.770Z,32.75
2017-07-14T15:50:04.514Z,32.29
2017-07-14T15:52:32.854Z,32.60
2017-07-14T15:55:01.184Z,32.52
2017-07-14T15:57:29.939Z,32.13
2017-07-14T15:59:58.266Z,32.46
2017-07-14T16:02:26.606Z,32.54
2017-07-14T16:04:55.381Z,32.86
2017-07-14T16:07:23.712Z,32.98
2017-07-14T16:09:52.057Z,33.13
2017-07-14T16:12:20.849Z,33.18
2017-07-14T16:14:49.180Z,33.23
2017-07-14T16:17:17.524Z,33.26
2017-07-14T16:19:46.223Z,33.62
2017-07-14T16:22:14.568Z,34.36
2017-07-14T16:24:42.917Z,34.77
2017-07-14T16:27:11.779Z,34.36
2017-07-14T16:29:40.137Z,35.25
2017-07-14T16:32:08.477Z,35.28
2017-07-14T16:34:37.186Z,35.70
2017-07-14T16:37:05.515Z,35.75
2017-07-14T16:39:33.883Z,35.48
2017-07-14T16:42:02.513Z,35.38
2017-07-14T16:44:30.891Z,35.72
2017-07-14T16:46:59.310Z,36.06
2017-07-14T16:49:28.321Z,36.62
2017-07-14T16:51:56.654Z,35.88
2017-07-14T16:54:25.016Z,36.33
2017-07-14T16:56:53.635Z,36.66
2017-07-14T16:59:21.971Z,37.04
2017-07-14T17:01:50.320Z,36.83
2017-07-14T17:04:18.997Z,36.73
2017-07-14T17:06:47.359Z,37.01
2017-07-14T17:09:15.686Z,36.88
2017-07-14T17:11:44.806Z,37.09
2017-07-14T17:14:13.189Z,36.56
2017-07-14T17:16:41.532Z,36.83
2017-07-14T17:19:10.435Z,36.81
2017-07-14T17:21:38.765Z,37.53
2017-07-14T17:24:07.120Z,37.26
2017-07-14T17:26:35.731Z,36.92
2017-07-14T17:29:04.072Z,36.81
2017-07-14T17:31:33.177Z,37.13
2017-07-14T17:34:02.162Z,37.22
2017-07-14T17:36:30.515Z,37.37
2017-07-14T17:38:59.617Z,37.03
2017-07-14T17:41:29.043Z,37.58
2017-07-14T17:43:57.390Z,38.43
2017-07-14T17:46:25.768Z,39.09
2017-07-14T17:48:54.462Z,38.87
2017-07-14T17:51:22.788Z,38.71
2017-07-14T17:53:51.126Z,39.61
2017-07-14T17:56:21.085Z,39.92
2017-07-14T17:58:49.418Z,40.20
2017-07-14T18:01:17.765Z,39.95
2017-07-14T18:03:46.432Z,41.01
2017-07-14T18:06:14.769Z,41.02
2017-07-14T18:08:43.886Z,41.15
2017-07-14T18:11:12.669Z,41.06
2017-07-14T18:13:41.003Z,41.50
2017-07-14T18:16:09.342Z,41.60
2017-07-14T18:18:38.304Z,41.99
2017-07-14T18:21:06.626Z,41.36
2017-07-14T18:23:34.969Z,41.85
2017-07-14T18:26:03.643Z,48.13
2017-07-14T18:28:32.750Z,49.43
2017-07-14T18:31:01.102Z,50.59
2017-07-14T18:33:30.009Z,51.43
2017-07-14T18:35:58.392Z,52.02
2017-07-14T18:38:27.518Z,53.33
2017-07-14T18:40:56.477Z,54.12
2017-07-14T18:43:24.810Z,54.89
2017-07-14T18:45:53.197Z,55.66
2017-07-14T18:48:21.915Z,56.83
2017-07-14T18:50:50.268Z,57.42
2017-07-14T18:53:18.655Z,57.68
2017-07-14T18:55:47.389Z,58.66
2017-07-14T18:58:15.754Z,59.44
2017-07-14T19:00:44.992Z,60.34
2017-07-14T19:03:13.676Z,60.51
2017-07-14T19:05:42.058Z,61.76
2017-07-14T19:08:10.412Z,62.65
2017-07-14T19:10:39.057Z,65.45
2017-07-14T19:13:07.408Z,65.61
2017-07-14T19:15:35.750Z,66.34
2017-07-14T19:18:05.387Z,67.83
2017-07-14T19:20:33.775Z,66.95
2017-07-14T19:23:02.161Z,68.06
2017-07-14T19:25:31.431Z,68.99
2017-07-14T19:27:59.779Z,69.87
2017-07-14T19:30:28.887Z,69.33
2017-07-14T19:32:57.559Z,69.67
2017-07-14T19:35:26.659Z,70.19
2017-07-14T19:37:55.753Z,68.59
2017-07-14T19:40:24.567Z,69.05
2017-07-14T19:42:52.927Z,68.28
2017-07-14T19:45:21.284Z,67.89
2017-07-14T19:47:50.244Z,67.91
2017-07-14T19:50:18.598Z,68.97
2017-07-14T19:52:46.963Z,69.07
2017-07-14T19:55:15.875Z,69.36
2017-07-14T19:57:44.242Z,68.72
2017-07-14T20:00:12.593Z,68.86
2017-07-14T20:02:41.337Z,68.65
2017-07-14T20:05:09.690Z,68.89
2017-07-14T20:07:38.798Z,68.35
2017-07-14T20:10:07.994Z,67.78
2017-07-14T20:12:36.356Z,67.87
2017-07-14T20:15:04.725Z,67.96
2017-07-14T20:17:33.659Z,67.38
2017-07-14T20:20:02.014Z,66.14
2017-07-14T20:22:30.346Z,68.60
2017-07-14T20:24:59.081Z,67.44
2017-07-14T20:27:27.452Z,68.26
2017-07-14T20:29:56.608Z,67.29
2017-07-14T20:32:25.384Z,68.63
2017-07-14T20:34:53.739Z,68.70
2017-07-14T20:37:22.086Z,70.24
2017-07-14T20:39:50.716Z,69.68
2017-07-14T20:42:19.065Z,69.60
2017-07-14T20:44:47.417Z,68.26
2017-07-14T20:47:16.256Z,69.46
2017-07-14T20:49:44.620Z,70.08
2017-07-14T20:52:13.006Z,69.65
2017-07-14T20:54:41.971Z,69.89
2017-07-14T20:57:10.330Z,70.61
2017-07-14T20:59:38.666Z,69.71
2017-07-14T21:02:07.531Z,70.36
2017-07-14T21:04:35.878Z,70.64
2017-07-14T21:07:04.227Z,71.23
2017-07-14T21:09:32.983Z,70.72
2017-07-14T21:12:01.403Z,70.23
2017-07-14T21:14:29.761Z,69.63
2017-07-14T21:16:58.591Z,68.75
2017-07-14T21:19:26.929Z,69.24
2017-07-14T21:21:55.294Z,69.71
2017-07-14T21:24:24.074Z,70.26
2017-07-14T21:26:52.441Z,69.55
2017-07-14T21:29:20.806Z,69.48
2017-07-14T21:31:49.590Z,69.96
2017-07-14T21:34:17.939Z,69.34
2017-07-14T21:36:46.274Z,68.96
2017-07-14T21:39:15.366Z,70.13
2017-07-14T21:41:43.738Z,71.98
2017-07-14T21:44:12.842Z,72.38
2017-07-14T21:46:42.353Z,72.88
2017-07-14T21:49:10.691Z,72.77
2017-07-14T21:51:39.039Z,72.66
2017-07-14T21:54:07.706Z,72.84
2017-07-14T21:56:36.058Z,74.46
2017-07-14T21:59:04.407Z,74.58
2017-07-14T22:01:33.269Z,74.25
2017-07-14T22:04:01.635Z,74.38
2017-07-14T22:06:29.985Z,74.45
2017-07-14T22:08:58.818Z,73.72
2017-07-14T22:11:27.172Z,72.96
2017-07-14T22:13:56.283Z,74.38
2017-07-14T22:16:24.957Z,74.57
2017-07-14T22:18:53.312Z,74.25
2017-07-14T22:21:21.661Z,74.68
2017-07-14T22:23:50.715Z,76.15
2017-07-14T22:26:19.054Z,75.97
2017-07-14T22:28:47.431Z,76.06
2017-07-14T22:31:16.353Z,76.41
2017-07-14T22:33:44.696Z,76.82
2017-07-14T22:36:13.825Z,77.19
2017-07-14T22:38:42.481Z,77.42
2017-07-14T22:41:10.821Z,77.58
2017-07-14T22:43:39.154Z,76.62
2017-07-14T22:46:08.012Z,77.38
2017-07-14T22:48:36.352Z,76.24
2017-07-14T22:51:04.718Z,76.10
2017-07-14T22:53:34.281Z,76.16
2017-07-14T22:56:02.606Z,76.30
2017-07-14T22:58:30.946Z,76.57
2017-07-14T23:00:59.595Z,76.26
2017-07-14T23:03:27.949Z,76.31
2017-07-14T23:05:56.286Z,75.71
2017-07-14T23:08:25.356Z,76.40
2017-07-14T23:10:53.694Z,75.63
2017-07-14T23:13:22.063Z,76.56
2017-07-14T23:15:51.513Z,76.59
2017-07-14T23:18:19.855Z,76.72
2017-07-14T23:20:48.951Z,76.56
2017-07-14T23:23:17.741Z,76.08
2017-07-14T23:25:46.079Z,77.03
2017-07-14T23:28:14.421Z,77.11
2017-07-14T23:30:43.274Z,76.91
2017-07-14T23:33:11.621Z,76.78
2017-07-14T23:35:39.957Z,76.37
2017-07-14T23:38:08.835Z,75.51
2017-07-14T23:40:37.165Z,76.19
2017-07-14T23:43:05.507Z,76.46
2017-07-14T23:45:34.190Z,76.46
2017-07-14T23:48:03.294Z,76.19
2017-07-14T23:50:31.635Z,75.74
2017-07-14T23:53:00.370Z,76.43
2017-07-14T23:55:28.791Z,76.66
2017-07-14T23:57:57.123Z,76.45
